sensor_id;sensor_type;location;lat;lon;timestamp;temperature;humidity
40374;DHT22;26079;45.958;12.492;2023-12-14T00:02:24;6.40;99.90
40374;DHT22;26079;45.958;12.492;2023-12-14T00:04:50;6.40;99.90
40374;DHT22;26079;45.958;12.492;2023-12-14T00:07:16;6.30;99.90
40374;DHT22;26079;45.958;12.492;2023-12-14T00:09:41;6.30;99.90
40374;DHT22;26079;45.958;12.492;2023-12-14T00:12:07;6.30;99.90
40374;DHT22;26079;45.958;12.492;2023-12-14T00:14:33;6.20;99.90
40374;DHT22;26079;45.958;12.492;2023-12-14T00:16:58;6.10;99.90
40374;DHT22;26079;45.958;12.492;2023-12-14T00:19:24;6.10;99.90
40374;DHT22;26079;45.958;12.492;2023-12-14T00:21:50;6.10;99.90
40374;DHT22;26079;45.958;12.492;2023-12-14T00:24:16;6.10;99.90
40374;DHT22;26079;45.958;12.492;2023-12-14T00:26:41;6.10;99.90
40374;DHT22;26079;45.958;12.492;2023-12-14T00:29:07;6.10;99.90
40374;DHT22;26079;45.958;12.492;2023-12-14T00:31:33;6.10;99.90
40374;DHT22;26079;45.958;12.492;2023-12-14T00:33:58;6.10;99.90
40374;DHT22;26079;45.958;12.492;2023-12-14T00:36:24;6.00;99.90
40374;DHT22;26079;45.958;12.492;2023-12-14T00:38:50;6.00;99.90
40374;DHT22;26079;45.958;12.492;2023-12-14T00:41:15;6.00;99.90
40374;DHT22;26079;45.958;12.492;2023-12-14T00:43:41;5.90;99.90
40374;DHT22;26079;45.958;12.492;2023-12-14T00:46:07;5.90;99.90
40374;DHT22;26079;45.958;12.492;2023-12-14T00:48:33;5.80;99.90
40374;DHT22;26079;45.958;12.492;2023-12-14T00:50:59;5.80;99.90
40374;DHT22;26079;45.958;12.492;2023-12-14T00:53:24;5.80;99.90
40374;DHT22;26079;45.958;12.492;2023-12-14T00:55:50;5.80;99.90
40374;DHT22;26079;45.958;12.492;2023-12-14T00:58:16;5.80;99.90
40374;DHT22;26079;45.958;12.492;2023-12-14T01:00:41;5.80;99.90
40374;DHT22;26079;45.958;12.492;2023-12-14T01:03:08;5.80;99.90
40374;DHT22;26079;45.958;12.492;2023-12-14T01:05:33;5.80;99.90
40374;DHT22;26079;45.958;12.492;2023-12-14T01:07:59;5.80;99.90
40374;DHT22;26079;45.958;12.492;2023-12-14T01:10:25;5.70;99.90
40374;DHT22;26079;45.958;12.492;2023-12-14T01:12:50;5.60;99.90
40374;DHT22;26079;45.958;12.492;2023-12-14T01:15:16;5.50;99.90
40374;DHT22;26079;45.958;12.492;2023-12-14T01:17:42;5.50;99.90
40374;DHT22;26079;45.958;12.492;2023-12-14T01:20:09;5.50;99.90
40374;DHT22;26079;45.958;12.492;2023-12-14T01:22:35;5.50;99.90
40374;DHT22;26079;45.958;12.492;2023-12-14T01:25:01;5.50;99.90
40374;DHT22;26079;45.958;12.492;2023-12-14T01:27:26;5.50;99.90
40374;DHT22;26079;45.958;12.492;2023-12-14T01:29:52;5.50;99.90
40374;DHT22;26079;45.958;12.492;2023-12-14T01:32:18;5.40;99.90
40374;DHT22;26079;45.958;12.492;2023-12-14T01:34:44;5.30;99.90
40374;DHT22;26079;45.958;12.492;2023-12-14T01:37:10;5.30;99.90
40374;DHT22;26079;45.958;12.492;2023-12-14T01:39:36;5.30;99.90
40374;DHT22;26079;45.958;12.492;2023-12-14T01:42:01;5.40;99.90
40374;DHT22;26079;45.958;12.492;2023-12-14T01:44:27;5.40;99.90
40374;DHT22;26079;45.958;12.492;2023-12-14T01:46:53;5.30;99.90
40374;DHT22;26079;45.958;12.492;2023-12-14T01:49:18;5.30;99.90
40374;DHT22;26079;45.958;12.492;2023-12-14T01:51:44;5.20;99.90
40374;DHT22;26079;45.958;12.492;2023-12-14T01:54:10;5.10;99.90
40374;DHT22;26079;45.958;12.492;2023-12-14T01:56:35;5.00;99.90
40374;DHT22;26079;45.958;12.492;2023-12-14T01:59:01;4.90;99.90
40374;DHT22;26079;45.958;12.492;2023-12-14T02:01:41;4.90;99.90
40374;DHT22;26079;45.958;12.492;2023-12-14T02:04:08;4.80;99.90
40374;DHT22;26079;45.958;12.492;2023-12-14T02:06:34;4.80;99.90
40374;DHT22;26079;45.958;12.492;2023-12-14T02:08:59;4.70;99.90
40374;DHT22;26079;45.958;12.492;2023-12-14T02:11:25;4.70;99.90
40374;DHT22;26079;45.958;12.492;2023-12-14T02:13:51;4.70;99.90
40374;DHT22;26079;45.958;12.492;2023-12-14T02:16:16;4.60;99.90
40374;DHT22;26079;45.958;12.492;2023-12-14T02:18:42;4.60;99.90
40374;DHT22;26079;45.958;12.492;2023-12-14T02:21:09;4.50;99.90
40374;DHT22;26079;45.958;12.492;2023-12-14T02:23:35;4.40;99.90
40374;DHT22;26079;45.958;12.492;2023-12-14T02:26:00;4.30;99.90
40374;DHT22;26079;45.958;12.492;2023-12-14T02:28:26;4.30;99.90
40374;DHT22;26079;45.958;12.492;2023-12-14T02:30:52;4.30;99.90
40374;DHT22;26079;45.958;12.492;2023-12-14T02:33:17;4.30;99.90
40374;DHT22;26079;45.958;12.492;2023-12-14T02:35:43;4.30;99.90
40374;DHT22;26079;45.958;12.492;2023-12-14T02:38:09;4.20;99.90
40374;DHT22;26079;45.958;12.492;2023-12-14T02:40:35;4.20;99.90
40374;DHT22;26079;45.958;12.492;2023-12-14T02:43:00;4.30;99.90
40374;DHT22;26079;45.958;12.492;2023-12-14T02:45:26;4.20;99.90
40374;DHT22;26079;45.958;12.492;2023-12-14T02:47:52;4.20;99.90
40374;DHT22;26079;45.958;12.492;2023-12-14T02:50:19;4.20;99.90
40374;DHT22;26079;45.958;12.492;2023-12-14T02:52:45;4.20;99.90
40374;DHT22;26079;45.958;12.492;2023-12-14T02:55:10;4.20;99.90
40374;DHT22;26079;45.958;12.492;2023-12-14T02:57:36;4.30;99.90
40374;DHT22;26079;45.958;12.492;2023-12-14T03:00:02;4.30;99.90
40374;DHT22;26079;45.958;12.492;2023-12-14T03:02:28;4.30;99.90
40374;DHT22;26079;45.958;12.492;2023-12-14T03:04:54;4.20;99.90
40374;DHT22;26079;45.958;12.492;2023-12-14T03:07:19;4.10;99.90
40374;DHT22;26079;45.958;12.492;2023-12-14T03:09:45;4.10;99.90
40374;DHT22;26079;45.958;12.492;2023-12-14T03:12:11;4.10;99.90
40374;DHT22;26079;45.958;12.492;2023-12-14T03:14:36;4.10;99.90
40374;DHT22;26079;45.958;12.492;2023-12-14T03:17:02;4.00;99.90
40374;DHT22;26079;45.958;12.492;2023-12-14T03:19:28;4.00;99.90
40374;DHT22;26079;45.958;12.492;2023-12-14T03:21:54;4.00;99.90
40374;DHT22;26079;45.958;12.492;2023-12-14T03:24:20;4.00;99.90
40374;DHT22;26079;45.958;12.492;2023-12-14T03:26:46;4.00;99.90
40374;DHT22;26079;45.958;12.492;2023-12-14T03:29:12;3.90;99.90
40374;DHT22;26079;45.958;12.492;2023-12-14T03:31:38;3.80;99.90
40374;DHT22;26079;45.958;12.492;2023-12-14T03:34:05;3.80;99.90
40374;DHT22;26079;45.958;12.492;2023-12-14T03:36:30;3.90;99.90
40374;DHT22;26079;45.958;12.492;2023-12-14T03:38:56;3.90;99.90
40374;DHT22;26079;45.958;12.492;2023-12-14T03:41:22;4.00;99.90
40374;DHT22;26079;45.958;12.492;2023-12-14T03:43:47;4.00;99.90
40374;DHT22;26079;45.958;12.492;2023-12-14T03:46:13;3.90;99.90
40374;DHT22;26079;45.958;12.492;2023-12-14T03:48:39;3.80;99.90
40374;DHT22;26079;45.958;12.492;2023-12-14T03:51:05;3.80;99.90
40374;DHT22;26079;45.958;12.492;2023-12-14T03:53:31;3.90;99.90
40374;DHT22;26079;45.958;12.492;2023-12-14T03:56:00;3.90;99.90
40374;DHT22;26079;45.958;12.492;2023-12-14T03:58:26;3.90;99.90
40374;DHT22;26079;45.958;12.492;2023-12-14T04:00:52;4.00;99.90
40374;DHT22;26079;45.958;12.492;2023-12-14T04:03:18;4.00;99.90
40374;DHT22;26079;45.958;12.492;2023-12-14T04:05:43;4.00;99.90
40374;DHT22;26079;45.958;12.492;2023-12-14T04:08:10;4.10;99.90
40374;DHT22;26079;45.958;12.492;2023-12-14T04:10:36;4.10;99.90
40374;DHT22;26079;45.958;12.492;2023-12-14T04:13:01;4.10;99.90
40374;DHT22;26079;45.958;12.492;2023-12-14T04:15:27;4.00;99.90
40374;DHT22;26079;45.958;12.492;2023-12-14T04:17:53;3.90;99.90
40374;DHT22;26079;45.958;12.492;2023-12-14T04:20:19;3.90;99.90
40374;DHT22;26079;45.958;12.492;2023-12-14T04:22:44;3.90;99.90
40374;DHT22;26079;45.958;12.492;2023-12-14T04:25:11;3.90;99.90
40374;DHT22;26079;45.958;12.492;2023-12-14T04:27:37;3.80;99.90
40374;DHT22;26079;45.958;12.492;2023-12-14T04:30:03;3.80;99.90
40374;DHT22;26079;45.958;12.492;2023-12-14T04:32:30;3.80;99.90
40374;DHT22;26079;45.958;12.492;2023-12-14T04:34:55;3.80;99.90
40374;DHT22;26079;45.958;12.492;2023-12-14T04:37:21;3.80;99.90
40374;DHT22;26079;45.958;12.492;2023-12-14T04:39:47;3.80;99.90
40374;DHT22;26079;45.958;12.492;2023-12-14T04:42:12;3.80;99.90
40374;DHT22;26079;45.958;12.492;2023-12-14T04:44:38;3.80;99.90
40374;DHT22;26079;45.958;12.492;2023-12-14T04:47:04;3.80;99.90
40374;DHT22;26079;45.958;12.492;2023-12-14T04:49:30;3.80;99.90
40374;DHT22;26079;45.958;12.492;2023-12-14T04:51:55;3.70;99.90
40374;DHT22;26079;45.958;12.492;2023-12-14T04:54:21;3.70;99.90
40374;DHT22;26079;45.958;12.492;2023-12-14T04:56:47;3.70;99.90
40374;DHT22;26079;45.958;12.492;2023-12-14T04:59:12;3.70;99.90
40374;DHT22;26079;45.958;12.492;2023-12-14T05:01:38;3.70;99.90
40374;DHT22;26079;45.958;12.492;2023-12-14T05:04:04;3.60;99.90
40374;DHT22;26079;45.958;12.492;2023-12-14T05:06:30;3.60;99.90
40374;DHT22;26079;45.958;12.492;2023-12-14T05:08:58;3.60;99.90
40374;DHT22;26079;45.958;12.492;2023-12-14T05:11:24;3.60;99.90
40374;DHT22;26079;45.958;12.492;2023-12-14T05:13:50;3.60;99.90
40374;DHT22;26079;45.958;12.492;2023-12-14T05:16:16;3.60;99.90
40374;DHT22;26079;45.958;12.492;2023-12-14T05:18:41;3.60;99.90
40374;DHT22;26079;45.958;12.492;2023-12-14T05:21:07;3.60;99.90
40374;DHT22;26079;45.958;12.492;2023-12-14T05:23:33;3.70;99.90
40374;DHT22;26079;45.958;12.492;2023-12-14T05:25:59;3.70;99.90
40374;DHT22;26079;45.958;12.492;2023-12-14T05:28:25;3.60;99.90
40374;DHT22;26079;45.958;12.492;2023-12-14T05:30:50;3.50;99.90
40374;DHT22;26079;45.958;12.492;2023-12-14T05:33:16;3.40;99.90
40374;DHT22;26079;45.958;12.492;2023-12-14T05:35:42;3.40;99.90
40374;DHT22;26079;45.958;12.492;2023-12-14T05:38:07;3.40;99.90
40374;DHT22;26079;45.958;12.492;2023-12-14T05:40:33;3.40;99.90
40374;DHT22;26079;45.958;12.492;2023-12-14T05:43:01;3.50;99.90
40374;DHT22;26079;45.958;12.492;2023-12-14T05:45:26;3.50;99.90
40374;DHT22;26079;45.958;12.492;2023-12-14T05:47:52;3.40;99.90
40374;DHT22;26079;45.958;12.492;2023-12-14T05:50:17;3.30;99.90
40374;DHT22;26079;45.958;12.492;2023-12-14T05:52:43;3.20;99.90
40374;DHT22;26079;45.958;12.492;2023-12-14T05:55:11;3.20;99.90
40374;DHT22;26079;45.958;12.492;2023-12-14T05:57:36;3.30;99.90
40374;DHT22;26079;45.958;12.492;2023-12-14T06:00:06;3.30;99.90
40374;DHT22;26079;45.958;12.492;2023-12-14T06:02:33;3.30;99.90
40374;DHT22;26079;45.958;12.492;2023-12-14T06:04:58;3.30;99.90
40374;DHT22;26079;45.958;12.492;2023-12-14T06:07:25;3.40;99.90
40374;DHT22;26079;45.958;12.492;2023-12-14T06:09:50;3.40;99.90
40374;DHT22;26079;45.958;12.492;2023-12-14T06:12:16;3.40;99.90
40374;DHT22;26079;45.958;12.492;2023-12-14T06:14:42;3.40;99.90
40374;DHT22;26079;45.958;12.492;2023-12-14T06:17:08;3.30;99.90
40374;DHT22;26079;45.958;12.492;2023-12-14T06:19:33;3.30;99.90
40374;DHT22;26079;45.958;12.492;2023-12-14T06:21:59;3.30;99.90
40374;DHT22;26079;45.958;12.492;2023-12-14T06:24:25;3.40;99.90
40374;DHT22;26079;45.958;12.492;2023-12-14T06:26:50;3.40;99.90
40374;DHT22;26079;45.958;12.492;2023-12-14T06:29:16;3.30;99.90
40374;DHT22;26079;45.958;12.492;2023-12-14T06:31:42;3.30;99.90
40374;DHT22;26079;45.958;12.492;2023-12-14T06:34:07;3.20;99.90
40374;DHT22;26079;45.958;12.492;2023-12-14T06:36:34;3.20;99.90
40374;DHT22;26079;45.958;12.492;2023-12-14T06:39:00;3.10;99.90
40374;DHT22;26079;45.958;12.492;2023-12-14T06:41:27;3.10;99.90
40374;DHT22;26079;45.958;12.492;2023-12-14T06:43:54;3.00;99.90
40374;DHT22;26079;45.958;12.492;2023-12-14T06:46:20;3.00;99.90
40374;DHT22;26079;45.958;12.492;2023-12-14T06:48:46;3.10;99.90
40374;DHT22;26079;45.958;12.492;2023-12-14T06:51:12;3.10;99.90
40374;DHT22;26079;45.958;12.492;2023-12-14T06:53:42;3.10;99.90
40374;DHT22;26079;45.958;12.492;2023-12-14T06:56:09;3.10;99.90
40374;DHT22;26079;45.958;12.492;2023-12-14T06:58:45;2.90;99.90
40374;DHT22;26079;45.958;12.492;2023-12-14T07:01:15;2.80;99.90
40374;DHT22;26079;45.958;12.492;2023-12-14T07:03:41;2.70;99.90
40374;DHT22;26079;45.958;12.492;2023-12-14T07:06:07;2.60;99.90
40374;DHT22;26079;45.958;12.492;2023-12-14T07:08:36;2.70;99.90
40374;DHT22;26079;45.958;12.492;2023-12-14T07:11:02;2.80;99.90
40374;DHT22;26079;45.958;12.492;2023-12-14T07:13:28;2.80;99.90
40374;DHT22;26079;45.958;12.492;2023-12-14T07:15:53;2.90;99.90
40374;DHT22;26079;45.958;12.492;2023-12-14T07:18:19;3.00;99.90
40374;DHT22;26079;45.958;12.492;2023-12-14T07:20:45;3.00;99.90
40374;DHT22;26079;45.958;12.492;2023-12-14T07:23:10;3.00;99.90
40374;DHT22;26079;45.958;12.492;2023-12-14T07:25:36;3.00;99.90
40374;DHT22;26079;45.958;12.492;2023-12-14T07:28:02;3.10;99.90
40374;DHT22;26079;45.958;12.492;2023-12-14T07:30:27;3.20;99.90
40374;DHT22;26079;45.958;12.492;2023-12-14T07:32:53;3.30;99.90
40374;DHT22;26079;45.958;12.492;2023-12-14T07:35:19;3.30;99.90
40374;DHT22;26079;45.958;12.492;2023-12-14T07:37:45;3.40;99.90
40374;DHT22;26079;45.958;12.492;2023-12-14T07:40:11;3.30;99.90
40374;DHT22;26079;45.958;12.492;2023-12-14T07:42:36;3.30;99.90
40374;DHT22;26079;45.958;12.492;2023-12-14T07:45:03;3.30;99.90
40374;DHT22;26079;45.958;12.492;2023-12-14T07:47:28;3.30;99.90
40374;DHT22;26079;45.958;12.492;2023-12-14T07:49:54;3.40;99.90
40374;DHT22;26079;45.958;12.492;2023-12-14T07:52:20;3.40;99.90
40374;DHT22;26079;45.958;12.492;2023-12-14T07:54:46;3.50;99.90
40374;DHT22;26079;45.958;12.492;2023-12-14T07:57:11;3.50;99.90
40374;DHT22;26079;45.958;12.492;2023-12-14T07:59:37;3.60;99.90
40374;DHT22;26079;45.958;12.492;2023-12-14T08:02:03;3.60;99.90
40374;DHT22;26079;45.958;12.492;2023-12-14T08:04:28;3.60;99.90
40374;DHT22;26079;45.958;12.492;2023-12-14T08:06:54;3.70;99.90
40374;DHT22;26079;45.958;12.492;2023-12-14T08:09:21;3.80;99.90
40374;DHT22;26079;45.958;12.492;2023-12-14T08:11:47;3.80;99.90
40374;DHT22;26079;45.958;12.492;2023-12-14T08:14:13;3.90;99.90
40374;DHT22;26079;45.958;12.492;2023-12-14T08:16:38;4.00;99.90
40374;DHT22;26079;45.958;12.492;2023-12-14T08:19:04;4.00;99.90
40374;DHT22;26079;45.958;12.492;2023-12-14T08:21:30;4.00;99.90
40374;DHT22;26079;45.958;12.492;2023-12-14T08:23:56;4.10;99.90
40374;DHT22;26079;45.958;12.492;2023-12-14T08:26:22;4.30;99.90
40374;DHT22;26079;45.958;12.492;2023-12-14T08:28:47;4.30;99.90
40374;DHT22;26079;45.958;12.492;2023-12-14T08:31:13;4.30;99.90
40374;DHT22;26079;45.958;12.492;2023-12-14T08:33:41;4.30;99.90
40374;DHT22;26079;45.958;12.492;2023-12-14T08:36:08;4.30;99.90
40374;DHT22;26079;45.958;12.492;2023-12-14T08:38:34;4.40;99.90
40374;DHT22;26079;45.958;12.492;2023-12-14T08:40:59;4.40;99.90
40374;DHT22;26079;45.958;12.492;2023-12-14T08:43:26;4.40;99.90
40374;DHT22;26079;45.958;12.492;2023-12-14T08:45:51;4.40;99.90
40374;DHT22;26079;45.958;12.492;2023-12-14T08:48:18;4.40;99.90
40374;DHT22;26079;45.958;12.492;2023-12-14T08:50:44;4.40;99.90
40374;DHT22;26079;45.958;12.492;2023-12-14T08:53:10;4.50;99.90
40374;DHT22;26079;45.958;12.492;2023-12-14T08:55:36;4.60;99.90
40374;DHT22;26079;45.958;12.492;2023-12-14T08:58:02;4.60;99.90
40374;DHT22;26079;45.958;12.492;2023-12-14T09:00:28;4.70;99.90
40374;DHT22;26079;45.958;12.492;2023-12-14T09:02:53;4.80;99.90
40374;DHT22;26079;45.958;12.492;2023-12-14T09:05:19;4.80;99.90
40374;DHT22;26079;45.958;12.492;2023-12-14T09:07:46;4.80;99.90
40374;DHT22;26079;45.958;12.492;2023-12-14T09:10:12;4.90;99.90
40374;DHT22;26079;45.958;12.492;2023-12-14T09:12:38;4.90;99.90
40374;DHT22;26079;45.958;12.492;2023-12-14T09:15:04;4.90;99.90
40374;DHT22;26079;45.958;12.492;2023-12-14T09:17:30;5.00;99.90
40374;DHT22;26079;45.958;12.492;2023-12-14T09:20:01;5.00;99.90
40374;DHT22;26079;45.958;12.492;2023-12-14T09:22:30;5.10;99.90
40374;DHT22;26079;45.958;12.492;2023-12-14T09:24:56;5.20;99.90
40374;DHT22;26079;45.958;12.492;2023-12-14T09:27:22;5.40;99.90
40374;DHT22;26079;45.958;12.492;2023-12-14T09:29:47;5.50;99.90
40374;DHT22;26079;45.958;12.492;2023-12-14T09:32:13;5.60;99.90
40374;DHT22;26079;45.958;12.492;2023-12-14T09:34:39;5.70;99.90
40374;DHT22;26079;45.958;12.492;2023-12-14T09:37:04;5.70;99.90
40374;DHT22;26079;45.958;12.492;2023-12-14T09:39:30;5.80;99.90
40374;DHT22;26079;45.958;12.492;2023-12-14T09:42:06;5.90;99.90
40374;DHT22;26079;45.958;12.492;2023-12-14T09:44:34;5.90;99.90
40374;DHT22;26079;45.958;12.492;2023-12-14T09:47:01;5.90;99.90
40374;DHT22;26079;45.958;12.492;2023-12-14T09:49:29;6.00;99.90
40374;DHT22;26079;45.958;12.492;2023-12-14T09:51:59;6.10;99.90
40374;DHT22;26079;45.958;12.492;2023-12-14T09:54:28;6.30;99.90
40374;DHT22;26079;45.958;12.492;2023-12-14T09:56:54;6.40;99.90
40374;DHT22;26079;45.958;12.492;2023-12-14T09:59:20;6.50;99.90
40374;DHT22;26079;45.958;12.492;2023-12-14T10:01:46;6.60;99.90
40374;DHT22;26079;45.958;12.492;2023-12-14T10:04:14;6.70;99.90
40374;DHT22;26079;45.958;12.492;2023-12-14T10:06:41;6.80;99.90
40374;DHT22;26079;45.958;12.492;2023-12-14T10:09:08;6.90;99.90
40374;DHT22;26079;45.958;12.492;2023-12-14T10:11:44;7.00;99.90
40374;DHT22;26079;45.958;12.492;2023-12-14T10:14:24;6.90;99.90
40374;DHT22;26079;45.958;12.492;2023-12-14T10:16:51;6.90;99.90
40374;DHT22;26079;45.958;12.492;2023-12-14T10:19:18;7.00;99.90
40374;DHT22;26079;45.958;12.492;2023-12-14T10:21:46;7.00;99.90
40374;DHT22;26079;45.958;12.492;2023-12-14T10:24:15;7.20;99.90
40374;DHT22;26079;45.958;12.492;2023-12-14T10:26:44;7.30;99.90
40374;DHT22;26079;45.958;12.492;2023-12-14T10:29:10;7.40;99.90
40374;DHT22;26079;45.958;12.492;2023-12-14T10:31:36;7.50;99.90
40374;DHT22;26079;45.958;12.492;2023-12-14T10:34:05;7.70;99.90
40374;DHT22;26079;45.958;12.492;2023-12-14T10:36:31;7.90;99.90
40374;DHT22;26079;45.958;12.492;2023-12-14T10:38:59;8.00;99.90
40374;DHT22;26079;45.958;12.492;2023-12-14T10:41:25;8.10;99.90
40374;DHT22;26079;45.958;12.492;2023-12-14T10:43:53;8.10;99.90
40374;DHT22;26079;45.958;12.492;2023-12-14T10:46:20;8.10;99.90
40374;DHT22;26079;45.958;12.492;2023-12-14T10:48:51;8.10;99.90
40374;DHT22;26079;45.958;12.492;2023-12-14T10:51:22;8.20;99.90
40374;DHT22;26079;45.958;12.492;2023-12-14T10:53:49;8.20;99.90
40374;DHT22;26079;45.958;12.492;2023-12-14T10:56:16;8.20;99.90
40374;DHT22;26079;45.958;12.492;2023-12-14T10:58:52;8.10;99.90
40374;DHT22;26079;45.958;12.492;2023-12-14T11:01:23;8.10;99.90
40374;DHT22;26079;45.958;12.492;2023-12-14T11:03:57;8.30;99.90
40374;DHT22;26079;45.958;12.492;2023-12-14T11:06:36;8.30;99.90
40374;DHT22;26079;45.958;12.492;2023-12-14T11:09:07;8.40;99.90
40374;DHT22;26079;45.958;12.492;2023-12-14T11:11:55;8.50;99.90
40374;DHT22;26079;45.958;12.492;2023-12-14T11:14:26;8.50;99.90
40374;DHT22;26079;45.958;12.492;2023-12-14T11:16:57;8.50;99.90
40374;DHT22;26079;45.958;12.492;2023-12-14T11:19:28;8.70;99.90
40374;DHT22;26079;45.958;12.492;2023-12-14T11:24:23;8.90;99.90
40374;DHT22;26079;45.958;12.492;2023-12-14T11:26:52;8.80;99.90
40374;DHT22;26079;45.958;12.492;2023-12-14T11:29:18;8.90;99.90
40374;DHT22;26079;45.958;12.492;2023-12-14T11:31:45;8.90;99.90
40374;DHT22;26079;45.958;12.492;2023-12-14T11:34:11;8.90;99.90
40374;DHT22;26079;45.958;12.492;2023-12-14T11:36:37;9.10;99.90
40374;DHT22;26079;45.958;12.492;2023-12-14T11:39:07;9.20;99.90
40374;DHT22;26079;45.958;12.492;2023-12-14T11:41:35;9.20;99.90
40374;DHT22;26079;45.958;12.492;2023-12-14T11:44:02;9.20;99.90
40374;DHT22;26079;45.958;12.492;2023-12-14T11:46:28;9.20;99.90
40374;DHT22;26079;45.958;12.492;2023-12-14T11:48:56;9.20;99.90
40374;DHT22;26079;45.958;12.492;2023-12-14T11:51:22;9.20;99.90
40374;DHT22;26079;45.958;12.492;2023-12-14T11:53:49;9.20;99.90
40374;DHT22;26079;45.958;12.492;2023-12-14T11:56:17;9.20;99.90
40374;DHT22;26079;45.958;12.492;2023-12-14T11:58:44;9.10;99.90
40374;DHT22;26079;45.958;12.492;2023-12-14T12:01:19;9.10;99.90
40374;DHT22;26079;45.958;12.492;2023-12-14T12:03:50;9.10;99.90
40374;DHT22;26079;45.958;12.492;2023-12-14T12:06:34;9.10;99.90
40374;DHT22;26079;45.958;12.492;2023-12-14T12:09:00;9.10;99.90
40374;DHT22;26079;45.958;12.492;2023-12-14T12:11:25;9.10;99.90
40374;DHT22;26079;45.958;12.492;2023-12-14T12:13:54;9.20;99.90
40374;DHT22;26079;45.958;12.492;2023-12-14T12:16:20;9.20;99.90
40374;DHT22;26079;45.958;12.492;2023-12-14T12:18:46;9.30;99.90
40374;DHT22;26079;45.958;12.492;2023-12-14T12:21:12;9.30;99.90
40374;DHT22;26079;45.958;12.492;2023-12-14T12:23:38;9.30;99.90
40374;DHT22;26079;45.958;12.492;2023-12-14T12:26:04;9.30;99.90
40374;DHT22;26079;45.958;12.492;2023-12-14T12:28:31;9.20;99.90
40374;DHT22;26079;45.958;12.492;2023-12-14T12:30:57;9.20;99.90
40374;DHT22;26079;45.958;12.492;2023-12-14T12:33:23;9.30;99.90
40374;DHT22;26079;45.958;12.492;2023-12-14T12:35:49;9.30;99.90
40374;DHT22;26079;45.958;12.492;2023-12-14T12:38:14;9.20;99.90
40374;DHT22;26079;45.958;12.492;2023-12-14T12:40:42;9.20;99.90
40374;DHT22;26079;45.958;12.492;2023-12-14T12:43:07;9.30;99.90
40374;DHT22;26079;45.958;12.492;2023-12-14T12:45:33;9.30;99.90
40374;DHT22;26079;45.958;12.492;2023-12-14T12:48:00;9.40;99.90
40374;DHT22;26079;45.958;12.492;2023-12-14T12:50:28;9.50;99.90
40374;DHT22;26079;45.958;12.492;2023-12-14T12:52:54;9.50;99.90
40374;DHT22;26079;45.958;12.492;2023-12-14T12:55:19;9.60;99.90
40374;DHT22;26079;45.958;12.492;2023-12-14T12:57:46;9.50;99.90
40374;DHT22;26079;45.958;12.492;2023-12-14T13:00:12;9.50;99.90
40374;DHT22;26079;45.958;12.492;2023-12-14T13:02:43;9.50;99.90
40374;DHT22;26079;45.958;12.492;2023-12-14T13:05:10;9.70;99.90
40374;DHT22;26079;45.958;12.492;2023-12-14T13:07:37;9.60;99.90
40374;DHT22;26079;45.958;12.492;2023-12-14T13:10:04;9.70;99.90
40374;DHT22;26079;45.958;12.492;2023-12-14T13:12:32;9.70;99.90
40374;DHT22;26079;45.958;12.492;2023-12-14T13:14:59;9.60;99.90
40374;DHT22;26079;45.958;12.492;2023-12-14T13:17:24;9.70;99.90
40374;DHT22;26079;45.958;12.492;2023-12-14T13:19:51;9.60;99.90
40374;DHT22;26079;45.958;12.492;2023-12-14T13:22:17;9.60;99.90
40374;DHT22;26079;45.958;12.492;2023-12-14T13:24:43;9.60;99.90
40374;DHT22;26079;45.958;12.492;2023-12-14T13:27:08;9.60;99.90
40374;DHT22;26079;45.958;12.492;2023-12-14T13:29:34;9.60;99.90
40374;DHT22;26079;45.958;12.492;2023-12-14T13:32:01;9.90;99.90
40374;DHT22;26079;45.958;12.492;2023-12-14T13:34:27;9.90;99.90
40374;DHT22;26079;45.958;12.492;2023-12-14T13:36:53;10.00;99.90
40374;DHT22;26079;45.958;12.492;2023-12-14T13:39:19;10.00;99.90
40374;DHT22;26079;45.958;12.492;2023-12-14T13:41:45;9.90;99.90
40374;DHT22;26079;45.958;12.492;2023-12-14T13:44:11;9.90;99.90
40374;DHT22;26079;45.958;12.492;2023-12-14T13:46:36;10.00;99.90
40374;DHT22;26079;45.958;12.492;2023-12-14T13:49:02;10.20;99.90
40374;DHT22;26079;45.958;12.492;2023-12-14T13:51:28;10.20;99.90
40374;DHT22;26079;45.958;12.492;2023-12-14T13:53:54;10.30;99.90
40374;DHT22;26079;45.958;12.492;2023-12-14T13:56:20;10.30;99.90
40374;DHT22;26079;45.958;12.492;2023-12-14T13:58:45;10.40;99.90
40374;DHT22;26079;45.958;12.492;2023-12-14T14:01:11;10.50;99.90
40374;DHT22;26079;45.958;12.492;2023-12-14T14:03:37;10.50;99.90
40374;DHT22;26079;45.958;12.492;2023-12-14T14:06:04;10.40;99.90
40374;DHT22;26079;45.958;12.492;2023-12-14T14:08:30;10.30;99.90
40374;DHT22;26079;45.958;12.492;2023-12-14T14:11:00;10.30;99.90
40374;DHT22;26079;45.958;12.492;2023-12-14T14:13:26;10.40;99.90
40374;DHT22;26079;45.958;12.492;2023-12-14T14:15:52;10.40;99.90
40374;DHT22;26079;45.958;12.492;2023-12-14T14:18:18;10.40;99.90
40374;DHT22;26079;45.958;12.492;2023-12-14T14:20:44;10.30;99.90
40374;DHT22;26079;45.958;12.492;2023-12-14T14:23:10;10.30;99.90
40374;DHT22;26079;45.958;12.492;2023-12-14T14:25:35;10.30;99.90
40374;DHT22;26079;45.958;12.492;2023-12-14T14:28:01;10.30;99.90
40374;DHT22;26079;45.958;12.492;2023-12-14T14:30:27;10.30;99.90
40374;DHT22;26079;45.958;12.492;2023-12-14T14:32:52;10.30;99.90
40374;DHT22;26079;45.958;12.492;2023-12-14T14:35:18;10.20;99.90
40374;DHT22;26079;45.958;12.492;2023-12-14T14:37:44;10.10;99.90
40374;DHT22;26079;45.958;12.492;2023-12-14T14:40:13;10.10;99.90
40374;DHT22;26079;45.958;12.492;2023-12-14T14:42:39;10.00;99.90
40374;DHT22;26079;45.958;12.492;2023-12-14T14:45:07;10.00;99.90
40374;DHT22;26079;45.958;12.492;2023-12-14T14:47:33;10.10;99.90
40374;DHT22;26079;45.958;12.492;2023-12-14T14:49:59;10.00;99.90
40374;DHT22;26079;45.958;12.492;2023-12-14T14:52:32;9.90;99.90
40374;DHT22;26079;45.958;12.492;2023-12-14T14:54:58;9.80;99.90
40374;DHT22;26079;45.958;12.492;2023-12-14T14:57:23;9.70;99.90
40374;DHT22;26079;45.958;12.492;2023-12-14T14:59:49;9.60;99.90
40374;DHT22;26079;45.958;12.492;2023-12-14T15:02:15;9.50;99.90
40374;DHT22;26079;45.958;12.492;2023-12-14T15:04:41;9.40;99.90
40374;DHT22;26079;45.958;12.492;2023-12-14T15:07:06;9.30;99.90
40374;DHT22;26079;45.958;12.492;2023-12-14T15:09:32;9.20;99.90
40374;DHT22;26079;45.958;12.492;2023-12-14T15:11:58;9.00;99.90
40374;DHT22;26079;45.958;12.492;2023-12-14T15:14:24;8.80;99.90
40374;DHT22;26079;45.958;12.492;2023-12-14T15:16:50;8.70;99.90
40374;DHT22;26079;45.958;12.492;2023-12-14T15:19:15;8.60;99.90
40374;DHT22;26079;45.958;12.492;2023-12-14T15:21:41;8.50;99.90
40374;DHT22;26079;45.958;12.492;2023-12-14T15:24:07;8.50;99.90
40374;DHT22;26079;45.958;12.492;2023-12-14T15:26:32;8.40;99.90
40374;DHT22;26079;45.958;12.492;2023-12-14T15:28:59;8.40;99.90